createdAt,value
2023-05-17T00:00:07.380Z,1014.12
2023-05-17T00:00:35.587Z,1014.12
2023-05-17T00:01:06.699Z,1014.02
2023-05-17T00:01:36.990Z,1014.02
2023-05-17T00:02:08.830Z,1014.12
2023-05-17T00:02:38.998Z,1014.12
2023-05-17T00:03:10.756Z,1014.12
2023-05-17T00:03:41.656Z,1014.12
2023-05-17T00:04:12.725Z,1014.12
2023-05-17T00:04:44.026Z,1014.12
2023-05-17T00:05:15.151Z,1014.22
2023-05-17T00:05:44.984Z,1014.22
2023-05-17T00:06:17.485Z,1014.02
2023-05-17T00:06:46.939Z,1014.02
2023-05-17T00:07:18.857Z,1013.92
2023-05-17T00:07:48.997Z,1013.92
2023-05-17T00:08:20.742Z,1014.32
2023-05-17T00:08:51.073Z,1014.32
2023-05-17T00:09:22.789Z,1014.32
2023-05-17T00:09:53.989Z,1014.32
2023-05-17T00:10:25.751Z,1014.02
2023-05-17T00:10:55.358Z,1014.02
2023-05-17T00:11:26.665Z,1014.32
2023-05-17T00:11:57.518Z,1014.32
2023-05-17T00:12:28.872Z,1014.22
2023-05-17T00:13:00.160Z,1014.22
2023-05-17T00:13:30.716Z,1014.02
2023-05-17T00:14:01.268Z,1014.02
2023-05-17T00:14:32.923Z,1014.12
2023-05-17T00:15:05.005Z,1014.02
2023-05-17T00:15:34.799Z,1014.02
2023-05-17T00:16:04.986Z,1014.22
2023-05-17T00:16:36.737Z,1014.22
2023-05-17T00:17:07.712Z,1014.12
2023-05-17T00:17:39.114Z,1014.12
2023-05-17T00:18:08.981Z,1014.12
2023-05-17T00:18:40.771Z,1014.12
2023-05-17T00:19:11.105Z,1014.12
2023-05-17T00:19:43.179Z,1014.12
2023-05-17T00:20:14.463Z,1014.12
2023-05-17T00:20:44.957Z,1014.12
2023-05-17T00:21:15.107Z,1014.22
2023-05-17T00:21:46.625Z,1014.22
2023-05-17T00:22:16.982Z,1014.12
2023-05-17T00:22:48.657Z,1014.12
2023-05-17T00:23:18.934Z,1014.22
2023-05-17T00:23:50.612Z,1014.22
2023-05-17T00:24:20.972Z,1014.12
2023-05-17T00:24:52.734Z,1014.12
2023-05-17T00:25:24.602Z,1014.12
2023-05-17T00:25:54.719Z,1014.12
2023-05-17T00:26:24.993Z,1014.22
2023-05-17T00:26:56.688Z,1014.22
2023-05-17T00:27:26.983Z,1014.22
2023-05-17T00:27:59.032Z,1014.22
2023-05-17T00:28:29.239Z,1014.12
2023-05-17T00:29:00.886Z,1014.12
2023-05-17T00:29:31.069Z,1014.32
2023-05-17T00:30:03.917Z,1014.32
2023-05-17T00:30:34.191Z,1014.22
2023-05-17T00:31:06.331Z,1013.82
2023-05-17T00:31:35.059Z,1013.82
2023-05-17T00:32:06.734Z,1014.22
2023-05-17T00:32:37.102Z,1014.22
2023-05-17T00:33:09.548Z,1014.22
2023-05-17T00:33:38.988Z,1014.22
2023-05-17T00:34:10.736Z,1014.12
2023-05-17T00:34:41.018Z,1014.12
2023-05-17T00:35:13.279Z,1014.02
2023-05-17T00:35:44.043Z,1014.02
2023-05-17T00:36:14.624Z,1014.12
2023-05-17T00:36:45.086Z,1014.12
2023-05-17T00:37:16.698Z,1014.22
2023-05-17T00:37:47.084Z,1014.22
2023-05-17T00:38:18.671Z,1014.02
2023-05-17T00:38:48.953Z,1014.02
2023-05-17T00:39:20.696Z,1014.32
2023-05-17T00:39:51.044Z,1014.32
2023-05-17T00:40:23.313Z,1014.22
2023-05-17T00:40:54.185Z,1014.22
2023-05-17T00:41:25.285Z,1014.12
2023-05-17T00:41:55.008Z,1014.12
2023-05-17T00:42:26.735Z,1014.22
2023-05-17T00:42:57.041Z,1014.22
2023-05-17T00:43:29.004Z,1014.42
2023-05-17T00:44:00.041Z,1014.42
2023-05-17T00:44:30.763Z,1014.22
2023-05-17T00:45:03.320Z,1014.22
2023-05-17T00:45:32.850Z,1014.42
2023-05-17T00:46:04.034Z,1014.22
2023-05-17T00:46:35.245Z,1014.22
2023-05-17T00:47:05.012Z,1014.32
2023-05-17T00:47:37.025Z,1014.32
2023-05-17T00:48:07.161Z,1014.42
2023-05-17T00:48:38.852Z,1014.42
2023-05-17T00:49:09.070Z,1014.32
2023-05-17T00:49:40.722Z,1014.32
2023-05-17T00:50:11.371Z,1014.32
2023-05-17T00:50:42.870Z,1014.32
2023-05-17T00:51:13.917Z,1014.42
2023-05-17T00:51:44.306Z,1014.42
2023-05-17T00:52:15.760Z,1014.22
2023-05-17T00:52:46.039Z,1014.22
2023-05-17T00:53:18.436Z,1014.32
2023-05-17T00:53:48.166Z,1014.32
2023-05-17T00:54:19.631Z,1014.22
2023-05-17T00:54:50.015Z,1014.22
2023-05-17T00:55:22.165Z,1014.22
2023-05-17T00:55:51.969Z,1014.22
2023-05-17T00:56:24.843Z,1014.12
2023-05-17T00:56:54.470Z,1014.12
2023-05-17T00:57:25.810Z,1014.22
2023-05-17T00:57:55.987Z,1014.22
2023-05-17T00:58:27.658Z,1014.42
2023-05-17T00:58:58.021Z,1014.42
2023-05-17T00:59:29.701Z,1014.02
2023-05-17T01:00:00.317Z,1014.02
2023-05-17T01:00:33.048Z,1014.22
2023-05-17T01:01:04.413Z,1014.22
2023-05-17T01:01:36.052Z,1014.22
2023-05-17T01:02:05.484Z,1014.32
2023-05-17T01:02:35.033Z,1014.32
2023-05-17T01:03:06.893Z,1014.32
2023-05-17T01:03:37.080Z,1014.32
2023-05-17T01:04:08.936Z,1014.53
2023-05-17T01:04:39.085Z,1014.53
2023-05-17T01:05:11.137Z,1014.32
2023-05-17T01:05:40.971Z,1014.32
2023-05-17T01:06:12.728Z,1014.22
2023-05-17T01:06:44.869Z,1014.22
2023-05-17T01:07:14.762Z,1014.32
2023-05-17T01:07:44.909Z,1014.32
2023-05-17T01:08:16.716Z,1014.32
2023-05-17T01:08:46.959Z,1014.32
2023-05-17T01:09:18.630Z,1014.42
2023-05-17T01:09:48.933Z,1014.42
2023-05-17T01:10:21.292Z,1014.32
2023-05-17T01:10:51.718Z,1014.32
2023-05-17T01:11:23.073Z,1014.12
2023-05-17T01:11:53.967Z,1014.12
2023-05-17T01:12:24.940Z,1014.32
2023-05-17T01:12:54.968Z,1014.32
2023-05-17T01:13:27.345Z,1014.32
2023-05-17T01:13:56.983Z,1014.32
2023-05-17T01:14:28.957Z,1014.32
2023-05-17T01:14:59.285Z,1014.32
2023-05-17T01:15:31.612Z,1014.32
2023-05-17T01:16:01.176Z,1014.32
2023-05-17T01:16:32.855Z,1014.22
2023-05-17T01:17:04.024Z,1014.32
2023-05-17T01:17:35.206Z,1014.32
2023-05-17T01:18:05.057Z,1014.32
2023-05-17T01:18:36.864Z,1014.32
2023-05-17T01:19:06.960Z,1014.53
2023-05-17T01:19:38.789Z,1014.53
2023-05-17T01:20:10.339Z,1014.53
2023-05-17T01:20:43.483Z,1014.53
2023-05-17T01:21:10.960Z,1014.42
2023-05-17T01:21:42.655Z,1014.42
2023-05-17T01:22:14.019Z,1014.32
2023-05-17T01:22:44.969Z,1014.32
2023-05-17T01:23:14.926Z,1014.32
2023-05-17T01:23:46.663Z,1014.32
2023-05-17T01:24:17.636Z,1014.42
2023-05-17T01:24:48.676Z,1014.42
2023-05-17T01:25:19.687Z,1014.53
2023-05-17T01:25:50.656Z,1014.53
2023-05-17T01:26:20.945Z,1014.53
2023-05-17T01:26:53.667Z,1014.53
2023-05-17T01:27:23.941Z,1014.53
2023-05-17T01:27:54.672Z,1014.53
2023-05-17T01:28:24.976Z,1014.53
2023-05-17T01:28:56.620Z,1014.53
2023-05-17T01:29:26.985Z,1014.42
2023-05-17T01:29:58.923Z,1014.42
2023-05-17T01:30:30.158Z,1014.42
2023-05-17T01:31:01.087Z,1014.42
2023-05-17T01:31:30.979Z,1014.53
2023-05-17T01:32:02.689Z,1014.53
2023-05-17T01:32:34.436Z,1014.63
2023-05-17T01:33:06.152Z,1014.53
2023-05-17T01:33:35.392Z,1014.53
2023-05-17T01:34:07.172Z,1014.53
2023-05-17T01:34:37.443Z,1014.53
2023-05-17T01:35:09.227Z,1014.53
2023-05-17T01:35:38.997Z,1014.53
2023-05-17T01:36:10.689Z,1014.53
2023-05-17T01:36:40.958Z,1014.53
2023-05-17T01:37:12.654Z,1014.63
2023-05-17T01:37:44.002Z,1014.63
2023-05-17T01:38:14.654Z,1014.63
2023-05-17T01:38:44.927Z,1014.63
2023-05-17T01:39:16.692Z,1014.73
2023-05-17T01:39:47.018Z,1014.73
2023-05-17T01:40:20.013Z,1014.63
2023-05-17T01:40:51.372Z,1014.63
2023-05-17T01:41:20.701Z,1014.63
2023-05-17T01:41:51.052Z,1014.63
2023-05-17T01:42:22.791Z,1014.73
2023-05-17T01:42:53.956Z,1014.73
2023-05-17T01:43:24.872Z,1014.63
2023-05-17T01:43:54.920Z,1014.63
2023-05-17T01:44:26.972Z,1014.63
2023-05-17T01:44:56.900Z,1014.63
2023-05-17T01:45:30.011Z,1014.73
2023-05-17T01:45:59.020Z,1014.73
2023-05-17T01:46:30.726Z,1014.73
2023-05-17T01:47:01.222Z,1014.73
2023-05-17T01:47:32.728Z,1014.73
2023-05-17T01:48:04.036Z,1014.73
2023-05-17T01:48:34.772Z,1014.73
2023-05-17T01:49:04.975Z,1014.63
2023-05-17T01:49:36.612Z,1014.63
2023-05-17T01:50:07.467Z,1014.73
2023-05-17T01:50:38.620Z,1014.73
2023-05-17T01:51:09.490Z,1014.63
2023-05-17T01:51:39.920Z,1014.63
2023-05-17T01:52:10.967Z,1014.73
2023-05-17T01:52:42.732Z,1014.73
2023-05-17T01:53:13.881Z,1014.83
2023-05-17T01:53:45.425Z,1014.83
2023-05-17T01:54:14.972Z,1014.83
2023-05-17T01:54:46.665Z,1014.83
2023-05-17T01:55:17.849Z,1014.93
2023-05-17T01:55:48.719Z,1014.93
2023-05-17T01:56:19.049Z,1014.83
2023-05-17T01:56:50.708Z,1014.83
2023-05-17T01:57:20.981Z,1014.73
2023-05-17T01:57:53.227Z,1014.73
2023-05-17T01:58:24.014Z,1014.93
2023-05-17T01:58:54.616Z,1014.93
2023-05-17T01:59:24.987Z,1014.73
2023-05-17T01:59:56.610Z,1014.73
2023-05-17T02:00:32.446Z,1014.83
2023-05-17T02:01:03.590Z,1014.83
2023-05-17T02:01:29.676Z,1014.73
2023-05-17T02:02:01.383Z,1014.73
2023-05-17T02:02:31.198Z,1014.63
2023-05-17T02:03:02.906Z,1014.63
2023-05-17T02:03:34.427Z,1014.83
2023-05-17T02:04:06.165Z,1014.83
2023-05-17T02:04:36.133Z,1014.83
2023-05-17T02:05:07.749Z,1015.03
2023-05-17T02:05:37.147Z,1015.03
2023-05-17T02:06:08.740Z,1014.93
2023-05-17T02:06:39.018Z,1014.93
2023-05-17T02:07:11.770Z,1014.53
2023-05-17T02:07:41.153Z,1014.53
2023-05-17T02:08:12.628Z,1014.73
2023-05-17T02:08:43.936Z,1014.73
2023-05-17T02:09:14.696Z,1014.73
2023-05-17T02:09:44.885Z,1014.73
2023-05-17T02:10:17.117Z,1014.73
2023-05-17T02:10:47.075Z,1014.73
2023-05-17T02:11:19.170Z,1014.73
2023-05-17T02:11:48.933Z,1014.73
2023-05-17T02:12:20.695Z,1014.73
2023-05-17T02:12:50.886Z,1014.73
2023-05-17T02:13:22.743Z,1014.83
2023-05-17T02:13:54.558Z,1014.83
2023-05-17T02:14:24.986Z,1015.03
2023-05-17T02:14:54.976Z,1015.03
2023-05-17T02:15:27.755Z,1014.93
2023-05-17T02:15:57.021Z,1014.93
2023-05-17T02:16:29.205Z,1014.73
2023-05-17T02:16:59.244Z,1014.73
2023-05-17T02:17:30.758Z,1014.93
2023-05-17T02:18:02.212Z,1014.93
2023-05-17T02:18:32.938Z,1014.83
2023-05-17T02:19:04.135Z,1014.83
2023-05-17T02:19:34.834Z,1014.83
2023-05-17T02:20:06.176Z,1014.73
2023-05-17T02:20:40.817Z,1014.73
2023-05-17T02:21:07.086Z,1014.93
2023-05-17T02:21:38.707Z,1014.93
2023-05-17T02:22:09.705Z,1014.83
2023-05-17T02:22:40.716Z,1014.83
2023-05-17T02:23:10.981Z,1014.93
2023-05-17T02:23:42.644Z,1014.93
2023-05-17T02:24:14.063Z,1014.93
2023-05-17T02:24:45.181Z,1014.93
2023-05-17T02:25:15.482Z,1014.93
2023-05-17T02:25:46.623Z,1014.93
2023-05-17T02:26:16.950Z,1014.83
2023-05-17T02:26:48.619Z,1014.83
2023-05-17T02:27:19.114Z,1014.83
2023-05-17T02:27:50.658Z,1014.83
2023-05-17T02:28:20.975Z,1014.93
2023-05-17T02:28:52.887Z,1014.93
2023-05-17T02:29:23.939Z,1015.03
2023-05-17T02:29:54.947Z,1015.03
2023-05-17T02:30:25.856Z,1015.03
2023-05-17T02:30:56.670Z,1015.03
2023-05-17T02:31:27.456Z,1014.93
2023-05-17T02:31:58.981Z,1014.93
2023-05-17T02:32:29.327Z,1014.83
2023-05-17T02:33:00.995Z,1014.83
2023-05-17T02:33:31.002Z,1015.03
2023-05-17T02:34:02.787Z,1015.03
2023-05-17T02:34:33.991Z,1015.03
2023-05-17T02:35:07.113Z,1015.14
2023-05-17T02:35:35.236Z,1015.14
2023-05-17T02:36:06.665Z,1015.03
2023-05-17T02:36:37.026Z,1015.03
2023-05-17T02:37:08.782Z,1015.03
2023-05-17T02:37:38.954Z,1015.03
2023-05-17T02:38:11.198Z,1015.03
2023-05-17T02:38:40.886Z,1015.03
2023-05-17T02:39:12.681Z,1014.93
2023-05-17T02:39:43.932Z,1014.93
2023-05-17T02:40:15.373Z,1015.03
2023-05-17T02:40:45.558Z,1015.03
2023-05-17T02:41:16.595Z,1014.93
2023-05-17T02:41:46.969Z,1014.93
2023-05-17T02:42:18.668Z,1015.03
2023-05-17T02:42:48.991Z,1015.03
2023-05-17T02:43:20.618Z,1015.14
2023-05-17T02:43:51.409Z,1015.14
2023-05-17T02:44:22.811Z,1014.93
2023-05-17T02:44:54.331Z,1014.93
2023-05-17T02:45:25.919Z,1015.03
2023-05-17T02:45:54.973Z,1015.03
2023-05-17T02:46:26.692Z,1015.03
2023-05-17T02:46:57.037Z,1015.03
2023-05-17T02:47:29.026Z,1015.14
2023-05-17T02:47:59.192Z,1015.14
2023-05-17T02:48:30.608Z,1015.03
2023-05-17T02:49:01.362Z,1015.03
2023-05-17T02:49:32.713Z,1014.93
2023-05-17T02:50:04.448Z,1015.03
2023-05-17T02:50:35.002Z,1015.03
2023-05-17T02:51:05.020Z,1015.03
2023-05-17T02:51:36.668Z,1015.03
2023-05-17T02:52:07.052Z,1015.34
2023-05-17T02:52:38.737Z,1015.34
2023-05-17T02:53:09.119Z,1014.93
2023-05-17T02:53:40.701Z,1014.93
2023-05-17T02:54:10.928Z,1015.14
2023-05-17T02:54:42.707Z,1015.14
2023-05-17T02:55:14.674Z,1015.03
2023-05-17T02:55:44.942Z,1015.03
2023-05-17T02:56:14.968Z,1015.14
2023-05-17T02:56:46.656Z,1015.14
2023-05-17T02:57:17.020Z,1015.03
2023-05-17T02:57:48.716Z,1015.03
2023-05-17T02:58:19.725Z,1015.03
2023-05-17T02:58:50.678Z,1015.03
2023-05-17T02:59:20.953Z,1015.34
2023-05-17T02:59:53.216Z,1015.34
2023-05-17T03:00:25.311Z,1015.14
2023-05-17T03:00:55.712Z,1015.14
2023-05-17T03:01:25.125Z,1015.14
2023-05-17T03:01:56.751Z,1015.14
2023-05-17T03:02:27.387Z,1015.03
2023-05-17T03:02:59.080Z,1015.03
2023-05-17T03:03:29.417Z,1015.34
2023-05-17T03:04:01.379Z,1015.34
2023-05-17T03:04:31.037Z,1015.34
2023-05-17T03:05:04.103Z,1015.34
2023-05-17T03:05:34.050Z,1015.44
2023-05-17T03:06:06.008Z,1015.24
2023-05-17T03:06:35.516Z,1015.24
2023-05-17T03:07:07.319Z,1015.03
2023-05-17T03:07:37.063Z,1015.03
2023-05-17T03:08:08.876Z,1015.24
2023-05-17T03:08:39.147Z,1015.24
2023-05-17T03:09:10.797Z,1015.24
2023-05-17T03:09:41.232Z,1015.24
2023-05-17T03:10:13.166Z,1015.24
2023-05-17T03:10:43.899Z,1015.24
2023-05-17T03:11:14.809Z,1015.44
2023-05-17T03:11:45.661Z,1015.44
2023-05-17T03:12:16.717Z,1015.34
2023-05-17T03:12:46.921Z,1015.34
2023-05-17T03:13:18.700Z,1015.24
2023-05-17T03:13:48.978Z,1015.24
2023-05-17T03:14:20.611Z,1015.34
2023-05-17T03:14:50.943Z,1015.34
2023-05-17T03:15:24.001Z,1015.44
2023-05-17T03:15:54.043Z,1015.44
2023-05-17T03:16:25.119Z,1015.44
2023-05-17T03:16:55.176Z,1015.44
2023-05-17T03:17:26.732Z,1015.51
2023-05-17T03:17:57.399Z,1015.51
2023-05-17T03:18:29.806Z,1015.44
2023-05-17T03:18:59.452Z,1015.44
2023-05-17T03:19:30.743Z,1015.44
2023-05-17T03:20:02.462Z,1015.44
2023-05-17T03:20:41.237Z,1015.71
2023-05-17T03:21:04.730Z,1015.34
2023-05-17T03:21:34.705Z,1015.34
2023-05-17T03:22:05.013Z,1015.61
2023-05-17T03:22:36.665Z,1015.61
2023-05-17T03:23:06.980Z,1015.51
2023-05-17T03:23:38.715Z,1015.51
2023-05-17T03:24:09.025Z,1015.51
2023-05-17T03:24:40.640Z,1015.51
2023-05-17T03:25:12.756Z,1015.44
2023-05-17T03:25:42.650Z,1015.44
2023-05-17T03:26:13.968Z,1015.61
2023-05-17T03:26:45.007Z,1015.61
2023-05-17T03:27:15.040Z,1015.51
2023-05-17T03:27:47.823Z,1015.51
2023-05-17T03:28:16.870Z,1015.51
2023-05-17T03:28:48.589Z,1015.51
2023-05-17T03:29:19.319Z,1015.44
2023-05-17T03:29:50.589Z,1015.44
2023-05-17T03:30:22.839Z,1015.51
2023-05-17T03:30:52.950Z,1015.51
2023-05-17T03:31:23.902Z,1015.61
2023-05-17T03:31:55.476Z,1015.61
2023-05-17T03:32:25.060Z,1015.61
2023-05-17T03:32:56.664Z,1015.61
2023-05-17T03:33:27.029Z,1015.81
2023-05-17T03:33:59.052Z,1015.81
2023-05-17T03:34:29.175Z,1015.44
2023-05-17T03:35:00.835Z,1015.44
2023-05-17T03:35:31.621Z,1015.51
2023-05-17T03:36:02.751Z,1015.51
2023-05-17T03:36:33.979Z,1015.61
2023-05-17T03:37:05.891Z,1015.61
2023-05-17T03:37:34.904Z,1015.61
2023-05-17T03:38:06.695Z,1015.61
2023-05-17T03:38:36.920Z,1015.61
2023-05-17T03:39:08.747Z,1015.71
2023-05-17T03:39:39.105Z,1015.71
2023-05-17T03:40:11.340Z,1015.51
2023-05-17T03:40:42.038Z,1015.51
2023-05-17T03:41:12.799Z,1015.61
2023-05-17T03:41:44.261Z,1015.61
2023-05-17T03:42:14.939Z,1015.71
2023-05-17T03:42:45.665Z,1015.71
2023-05-17T03:43:16.856Z,1015.81
2023-05-17T03:43:47.097Z,1015.81
2023-05-17T03:44:18.759Z,1015.81
2023-05-17T03:44:49.106Z,1015.81
2023-05-17T03:45:22.443Z,1015.81
2023-05-17T03:45:51.114Z,1015.81
2023-05-17T03:46:23.007Z,1015.81
2023-05-17T03:46:54.099Z,1015.81
2023-05-17T03:47:25.634Z,1015.81
2023-05-17T03:47:55.116Z,1015.81
2023-05-17T03:48:26.876Z,1016.02
2023-05-17T03:48:57.106Z,1016.02
2023-05-17T03:49:29.138Z,1015.92
2023-05-17T03:49:59.368Z,1015.92
2023-05-17T03:50:31.304Z,1015.92
2023-05-17T03:51:01.380Z,1015.92
2023-05-17T03:51:32.091Z,1015.92
2023-05-17T03:52:04.848Z,1015.81
2023-05-17T03:52:34.825Z,1015.81
2023-05-17T03:53:05.121Z,1016.02
2023-05-17T03:53:36.843Z,1016.02
2023-05-17T03:54:07.152Z,1016.02
2023-05-17T03:54:38.791Z,1016.02
2023-05-17T03:55:09.576Z,1016.12
2023-05-17T03:55:40.765Z,1016.12
2023-05-17T03:56:11.574Z,1015.92
2023-05-17T03:56:42.749Z,1015.92
2023-05-17T03:57:14.022Z,1016.02
2023-05-17T03:57:45.049Z,1016.02
2023-05-17T03:58:15.092Z,1015.81
2023-05-17T03:58:47.493Z,1015.81
2023-05-17T03:59:17.031Z,1015.92
2023-05-17T03:59:48.803Z,1015.92
2023-05-17T04:00:20.928Z,1016.02
2023-05-17T04:00:57.215Z,1016.02
2023-05-17T04:01:21.077Z,1016.32
2023-05-17T04:01:52.803Z,1016.32
2023-05-17T04:02:24.344Z,1016.22
2023-05-17T04:02:54.804Z,1016.22
2023-05-17T04:03:25.205Z,1016.02
2023-05-17T04:03:56.828Z,1016.02
2023-05-17T04:04:27.430Z,1015.92
2023-05-17T04:04:58.891Z,1015.92
2023-05-17T04:05:31.190Z,1016.02
2023-05-17T04:06:01.037Z,1016.02
2023-05-17T04:06:31.282Z,1016.22
2023-05-17T04:07:02.778Z,1016.22
2023-05-17T04:07:34.061Z,1016.22
2023-05-17T04:08:06.474Z,1016.02
2023-05-17T04:08:35.546Z,1016.02
2023-05-17T04:09:06.889Z,1016.02
2023-05-17T04:09:37.637Z,1016.02
2023-05-17T04:10:09.556Z,1016.12
2023-05-17T04:10:39.037Z,1016.12
2023-05-17T04:11:10.857Z,1015.92
2023-05-17T04:11:41.039Z,1015.92
2023-05-17T04:12:13.372Z,1016.12
2023-05-17T04:12:43.987Z,1016.12
2023-05-17T04:13:14.762Z,1016.02
2023-05-17T04:13:45.110Z,1016.02
2023-05-17T04:14:16.759Z,1016.42
2023-05-17T04:14:47.056Z,1016.42
2023-05-17T04:15:21.291Z,1016.02
2023-05-17T04:15:49.118Z,1016.02
2023-05-17T04:16:20.841Z,1016.02
2023-05-17T04:16:51.045Z,1016.02
2023-05-17T04:17:22.861Z,1016.12
2023-05-17T04:17:54.095Z,1016.12
2023-05-17T04:18:25.216Z,1016.22
2023-05-17T04:18:55.307Z,1016.22
2023-05-17T04:19:26.975Z,1016.22
2023-05-17T04:19:57.176Z,1016.22
2023-05-17T04:20:42.038Z,1016.22
2023-05-17T04:20:59.429Z,1016.22
2023-05-17T04:21:30.780Z,1016.12
2023-05-17T04:22:01.222Z,1016.12
2023-05-17T04:22:32.785Z,1016.22
2023-05-17T04:23:04.087Z,1016.22
2023-05-17T04:23:34.857Z,1016.22
2023-05-17T04:24:05.138Z,1016.02
2023-05-17T04:24:37.684Z,1016.02
2023-05-17T04:25:07.575Z,1016.22
2023-05-17T04:25:39.405Z,1016.22
2023-05-17T04:26:09.027Z,1016.12
2023-05-17T04:26:40.806Z,1016.12
2023-05-17T04:27:11.067Z,1016.22
2023-05-17T04:27:42.753Z,1016.22
2023-05-17T04:28:14.095Z,1016.22
2023-05-17T04:28:45.148Z,1016.22
2023-05-17T04:29:15.156Z,1016.32
2023-05-17T04:29:46.773Z,1016.32
2023-05-17T04:30:18.767Z,1016.22
2023-05-17T04:30:48.913Z,1016.22
2023-05-17T04:31:19.322Z,1016.32
2023-05-17T04:31:50.803Z,1016.32
2023-05-17T04:32:21.409Z,1016.32
2023-05-17T04:32:52.980Z,1016.32
2023-05-17T04:33:24.317Z,1016.42
2023-05-17T04:33:54.834Z,1016.42
2023-05-17T04:34:25.169Z,1016.32
2023-05-17T04:34:56.811Z,1016.32
2023-05-17T04:35:27.876Z,1016.32
2023-05-17T04:35:59.643Z,1016.32
2023-05-17T04:36:30.257Z,1016.52
2023-05-17T04:37:01.266Z,1016.52
2023-05-17T04:37:31.097Z,1016.42
2023-05-17T04:38:02.857Z,1016.42
2023-05-17T04:38:34.334Z,1016.42
2023-05-17T04:39:06.075Z,1016.42
2023-05-17T04:39:35.765Z,1016.42
2023-05-17T04:40:07.457Z,1016.32
2023-05-17T04:40:42.225Z,1016.32
2023-05-17T04:41:08.791Z,1016.32
2023-05-17T04:41:39.032Z,1016.32
2023-05-17T04:42:10.742Z,1016.42
2023-05-17T04:42:41.042Z,1016.42
2023-05-17T04:43:12.692Z,1016.63
2023-05-17T04:43:44.106Z,1016.63
2023-05-17T04:44:14.881Z,1016.42
2023-05-17T04:44:45.089Z,1016.42
2023-05-17T04:45:17.936Z,1016.63
2023-05-17T04:45:47.804Z,1016.63
2023-05-17T04:46:18.850Z,1016.52
2023-05-17T04:46:49.086Z,1016.52
2023-05-17T04:47:20.758Z,1016.63
2023-05-17T04:47:51.117Z,1016.63
2023-05-17T04:48:23.094Z,1016.63
2023-05-17T04:48:54.157Z,1016.63
2023-05-17T04:49:25.018Z,1016.52
2023-05-17T04:49:55.899Z,1016.52
2023-05-17T04:50:27.332Z,1016.63
2023-05-17T04:50:57.057Z,1016.63
2023-05-17T04:51:28.035Z,1016.73
2023-05-17T04:51:59.312Z,1016.73
2023-05-17T04:52:31.585Z,1016.73
2023-05-17T04:53:01.229Z,1016.73
2023-05-17T04:53:32.854Z,1016.73
2023-05-17T04:54:04.079Z,1016.52
2023-05-17T04:54:34.808Z,1016.52
2023-05-17T04:55:07.260Z,1016.83
2023-05-17T04:55:36.940Z,1016.83
2023-05-17T04:56:07.486Z,1016.52
2023-05-17T04:56:38.717Z,1016.52
2023-05-17T04:57:09.017Z,1016.83
2023-05-17T04:57:40.740Z,1016.83
2023-05-17T04:58:11.026Z,1016.83
2023-05-17T04:58:42.826Z,1016.83
2023-05-17T04:59:14.602Z,1016.93
2023-05-17T04:59:45.175Z,1016.93
2023-05-17T05:00:16.195Z,1017.03
2023-05-17T05:00:53.762Z,1017.03
2023-05-17T05:01:17.042Z,1017.03
2023-05-17T05:01:48.718Z,1017.03
2023-05-17T05:02:19.068Z,1017.03
2023-05-17T05:02:50.765Z,1017.03
2023-05-17T05:03:21.748Z,1016.73
2023-05-17T05:03:52.760Z,1016.73
2023-05-17T05:04:24.054Z,1016.93
2023-05-17T05:04:54.745Z,1016.93
2023-05-17T05:05:25.665Z,1016.83
2023-05-17T05:05:57.749Z,1016.83
2023-05-17T05:06:27.053Z,1017.13
2023-05-17T05:06:58.968Z,1017.13
2023-05-17T05:07:29.303Z,1016.93
2023-05-17T05:08:01.095Z,1016.93
2023-05-17T05:08:30.992Z,1016.93
2023-05-17T05:09:02.667Z,1016.93
2023-05-17T05:09:34.075Z,1016.93
2023-05-17T05:10:07.012Z,1017.03
2023-05-17T05:10:35.220Z,1017.03
2023-05-17T05:11:06.730Z,1017.24
2023-05-17T05:11:37.062Z,1017.24
2023-05-17T05:12:08.766Z,1017.03
2023-05-17T05:12:39.013Z,1017.03
2023-05-17T05:13:10.826Z,1017.03
2023-05-17T05:13:41.307Z,1017.03
2023-05-17T05:14:12.753Z,1017.24
2023-05-17T05:14:44.079Z,1017.24
2023-05-17T05:15:16.474Z,1017.13
2023-05-17T05:15:45.143Z,1017.13
2023-05-17T05:16:16.719Z,1017.13
2023-05-17T05:16:47.815Z,1017.13
2023-05-17T05:17:18.854Z,1017.03
2023-05-17T05:17:49.100Z,1017.03
2023-05-17T05:18:20.846Z,1017.03
2023-05-17T05:18:51.247Z,1017.03
2023-05-17T05:19:23.573Z,1017.03
2023-05-17T05:19:54.221Z,1017.03
2023-05-17T05:20:27.920Z,1017.03
2023-05-17T05:20:55.023Z,1017.03
2023-05-17T05:21:26.784Z,1016.93
2023-05-17T05:21:57.040Z,1016.93
2023-05-17T05:22:29.134Z,1017.13
2023-05-17T05:22:59.315Z,1017.13
2023-05-17T05:23:30.993Z,1016.93
2023-05-17T05:24:01.037Z,1016.93
2023-05-17T05:24:32.852Z,1017.13
2023-05-17T05:25:04.690Z,1017.13
2023-05-17T05:25:34.769Z,1017.13
2023-05-17T05:26:05.200Z,1017.03
2023-05-17T05:26:36.752Z,1017.03
2023-05-17T05:27:07.325Z,1016.93
2023-05-17T05:27:38.854Z,1016.93
2023-05-17T05:28:09.171Z,1017.24
2023-05-17T05:28:40.839Z,1017.24
2023-05-17T05:29:11.061Z,1017.13
2023-05-17T05:29:42.857Z,1017.13
2023-05-17T05:30:15.443Z,1017.13
2023-05-17T05:30:45.188Z,1017.13
2023-05-17T05:31:15.094Z,1016.93
2023-05-17T05:31:46.748Z,1016.93
2023-05-17T05:32:17.160Z,1017.13
2023-05-17T05:32:49.570Z,1017.13
2023-05-17T05:33:19.238Z,1017.13
2023-05-17T05:33:50.821Z,1017.13
2023-05-17T05:34:21.067Z,1017.24
2023-05-17T05:34:52.864Z,1017.24
2023-05-17T05:35:25.396Z,1017.13
2023-05-17T05:35:54.844Z,1017.13
2023-05-17T05:36:25.239Z,1017.13
2023-05-17T05:36:56.855Z,1017.13
2023-05-17T05:37:27.067Z,1017.24
2023-05-17T05:37:58.904Z,1017.24
2023-05-17T05:38:29.310Z,1017.13
2023-05-17T05:39:01.181Z,1017.13
2023-05-17T05:39:31.060Z,1017.13
2023-05-17T05:40:03.369Z,1017.13
2023-05-17T05:40:42.314Z,1017.24
2023-05-17T05:41:06.175Z,1017.13
2023-05-17T05:41:35.068Z,1017.13
2023-05-17T05:42:06.683Z,1017.24
2023-05-17T05:42:37.042Z,1017.24
2023-05-17T05:43:08.740Z,1017.24
2023-05-17T05:43:40.393Z,1017.24
2023-05-17T05:44:10.793Z,1017.13
2023-05-17T05:44:41.004Z,1017.13
2023-05-17T05:45:14.345Z,1017.24
2023-05-17T05:46:15.442Z,1017.34
2023-05-17T05:46:45.085Z,1017.34
2023-05-17T05:47:16.699Z,1017.34
2023-05-17T05:47:47.108Z,1017.34
2023-05-17T05:48:18.994Z,1017.44
2023-05-17T05:48:49.130Z,1017.44
2023-05-17T05:49:20.727Z,1017.44
2023-05-17T05:49:51.159Z,1017.44
2023-05-17T05:50:23.465Z,1017.24
2023-05-17T05:50:54.100Z,1017.24
2023-05-17T05:51:25.262Z,1017.34
2023-05-17T05:51:55.075Z,1017.34
2023-05-17T05:52:26.071Z,1017.44
2023-05-17T05:53:07.027Z,1017.44
2023-05-17T05:53:28.009Z,1017.24
2023-05-17T05:53:59.778Z,1017.24
2023-05-17T05:54:30.507Z,1017.34
2023-05-17T05:55:02.735Z,1017.34
2023-05-17T05:55:32.080Z,1017.24
2023-05-17T05:56:04.921Z,1017.34
2023-05-17T05:56:34.081Z,1017.34
2023-05-17T05:57:05.971Z,1017.44
2023-05-17T05:57:36.251Z,1017.44
2023-05-17T05:58:07.744Z,1017.44
2023-05-17T05:58:38.076Z,1017.44
2023-05-17T05:59:09.736Z,1017.61
2023-05-17T05:59:40.085Z,1017.61
2023-05-17T06:00:12.915Z,1017.54
2023-05-17T06:00:51.045Z,1017.54
2023-05-17T06:01:14.723Z,1017.44
2023-05-17T06:01:44.471Z,1017.44
2023-05-17T06:02:15.847Z,1017.54
2023-05-17T06:02:46.108Z,1017.54
2023-05-17T06:03:17.759Z,1017.54
2023-05-17T06:03:48.778Z,1017.54
2023-05-17T06:04:22.576Z,1017.54
2023-05-17T06:04:50.022Z,1017.54
2023-05-17T06:05:22.286Z,1017.34
2023-05-17T06:05:52.254Z,1017.34
2023-05-17T06:06:24.928Z,1017.54
2023-05-17T06:06:54.198Z,1017.54
2023-05-17T06:07:25.742Z,1017.54
2023-05-17T06:07:56.089Z,1017.54
2023-05-17T06:08:27.816Z,1017.61
2023-05-17T06:08:59.538Z,1017.61
2023-05-17T06:09:29.677Z,1017.44
2023-05-17T06:09:59.967Z,1017.44
2023-05-17T06:10:32.740Z,1017.71
2023-05-17T06:11:02.050Z,1017.71
2023-05-17T06:11:34.874Z,1017.54
2023-05-17T06:12:05.372Z,1017.71
2023-05-17T06:12:38.560Z,1017.71
2023-05-17T06:13:06.012Z,1017.44
2023-05-17T06:13:36.996Z,1017.44
2023-05-17T06:14:08.763Z,1017.54
2023-05-17T06:14:39.435Z,1017.54
2023-05-17T06:15:11.687Z,1017.44